createdAt,value
2017-10-11T00:00:55.191Z,0.00
2017-10-11T00:01:55.582Z,0.00
2017-10-11T00:02:57.434Z,0.00
2017-10-11T00:03:59.349Z,0.00
2017-10-11T00:04:59.083Z,0.00
2017-10-11T00:05:57.567Z,0.00
2017-10-11T00:06:56.961Z,0.00
2017-10-11T00:07:55.810Z,0.00
2017-10-11T00:08:55.578Z,0.00
2017-10-11T00:09:55.675Z,0.00
2017-10-11T00:10:55.650Z,0.00
2017-10-11T00:11:55.697Z,0.00
2017-10-11T00:12:55.746Z,0.00
2017-10-11T00:13:55.791Z,0.00
2017-10-11T00:14:55.906Z,0.00
2017-10-11T00:15:56.071Z,0.00
2017-10-11T00:16:58.586Z,0.00
2017-10-11T00:17:56.544Z,0.00
2017-10-11T00:18:56.530Z,0.00
2017-10-11T00:19:56.919Z,0.00
2017-10-11T00:20:58.552Z,0.00
2017-10-11T00:21:56.591Z,0.00
2017-10-11T00:22:57.080Z,0.00
2017-10-11T00:23:58.947Z,0.00
2017-10-11T00:24:57.374Z,0.00
2017-10-11T00:25:56.634Z,0.00
2017-10-11T00:26:56.424Z,0.00
2017-10-11T00:27:56.945Z,0.00
2017-10-11T00:28:56.510Z,0.00
2017-10-11T00:30:00.465Z,0.00
2017-10-11T00:30:58.230Z,0.00
2017-10-11T00:31:57.060Z,0.00
2017-10-11T00:32:56.908Z,0.00
2017-10-11T00:33:58.091Z,0.00
2017-10-11T00:35:01.551Z,0.00
2017-10-11T00:35:57.950Z,0.00
2017-10-11T00:36:57.023Z,0.00
2017-10-11T00:37:58.255Z,0.00
2017-10-11T00:38:57.247Z,0.00
2017-10-11T00:39:57.906Z,0.00
2017-10-11T00:40:57.271Z,0.00
2017-10-11T00:41:57.790Z,0.00
2017-10-11T00:42:57.903Z,0.00
2017-10-11T00:43:58.243Z,0.00
2017-10-11T00:44:57.227Z,0.00
2017-10-11T00:45:57.642Z,0.00
2017-10-11T00:46:58.161Z,0.00
2017-10-11T00:47:58.507Z,0.00
2017-10-11T00:48:57.412Z,0.00
2017-10-11T00:49:57.876Z,0.00
2017-10-11T00:50:58.795Z,0.00
2017-10-11T00:51:58.723Z,0.00
2017-10-11T00:52:58.213Z,0.00
2017-10-11T00:53:58.276Z,0.00
2017-10-11T00:54:57.700Z,0.00
2017-10-11T00:55:57.807Z,0.00
2017-10-11T00:56:58.217Z,0.00
2017-10-11T00:57:57.827Z,0.00
2017-10-11T00:58:57.876Z,0.00
2017-10-11T00:59:57.922Z,0.00
2017-10-11T01:00:58.038Z,0.00
2017-10-11T01:01:58.010Z,0.00
2017-10-11T01:02:58.063Z,0.00
2017-10-11T01:03:58.106Z,0.00
2017-10-11T01:04:58.150Z,0.00
2017-10-11T01:05:58.264Z,0.00
2017-10-11T01:06:58.244Z,0.00
2017-10-11T01:07:58.290Z,0.00
2017-10-11T01:08:58.337Z,0.00
2017-10-11T01:09:58.381Z,0.00
2017-10-11T01:10:58.513Z,0.00
2017-10-11T01:11:58.475Z,0.00
2017-10-11T01:12:58.519Z,0.00
2017-10-11T01:13:58.571Z,0.00
2017-10-11T01:14:58.612Z,0.00
2017-10-11T01:15:58.726Z,0.00
2017-10-11T01:16:58.769Z,0.00
2017-10-11T01:17:58.755Z,0.00
2017-10-11T01:18:58.799Z,0.00
2017-10-11T01:19:58.845Z,0.00
2017-10-11T01:20:58.892Z,0.00
2017-10-11T01:21:59.002Z,0.00
2017-10-11T01:22:59.603Z,0.00
2017-10-11T01:23:59.030Z,0.00
2017-10-11T01:24:59.076Z,0.00
2017-10-11T01:25:59.120Z,0.00
2017-10-11T01:26:59.239Z,0.00
2017-10-11T01:27:59.213Z,0.00
2017-10-11T01:28:59.261Z,0.00
2017-10-11T01:29:59.308Z,0.00
2017-10-11T01:30:59.354Z,0.00
2017-10-11T01:31:59.465Z,0.00
2017-10-11T01:32:59.445Z,0.00
2017-10-11T01:33:59.494Z,0.00
2017-10-11T01:34:59.538Z,0.00
2017-10-11T01:35:59.585Z,0.00
2017-10-11T01:37:00.178Z,0.00
2017-10-11T01:37:59.676Z,0.00
2017-10-11T01:38:59.725Z,0.00
2017-10-11T01:39:59.774Z,0.00
2017-10-11T01:40:59.816Z,0.00
2017-10-11T01:41:59.937Z,0.00
2017-10-11T01:42:59.907Z,0.00
2017-10-11T01:43:59.953Z,0.00
2017-10-11T01:45:00.000Z,0.00
2017-10-11T01:46:00.052Z,0.00
2017-10-11T01:47:00.153Z,0.00
2017-10-11T01:48:00.206Z,0.00
2017-10-11T01:49:00.184Z,0.00
2017-10-11T01:50:00.244Z,0.00
2017-10-11T01:51:00.275Z,0.00
2017-10-11T01:52:00.406Z,0.00
2017-10-11T01:53:00.375Z,0.00
2017-10-11T01:54:00.415Z,0.00
2017-10-11T01:55:00.461Z,0.00
2017-10-11T01:56:00.508Z,0.00
2017-10-11T01:57:00.622Z,0.00
2017-10-11T01:58:00.599Z,0.00
2017-10-11T01:59:00.646Z,0.00
2017-10-11T02:00:00.696Z,0.00
2017-10-11T02:01:00.740Z,0.00
2017-10-11T02:02:00.851Z,0.00
2017-10-11T02:03:00.829Z,0.00
2017-10-11T02:04:00.878Z,0.00
2017-10-11T02:05:00.923Z,0.00
2017-10-11T02:06:00.967Z,0.00
2017-10-11T02:07:01.078Z,0.00
2017-10-11T02:08:01.124Z,0.00
2017-10-11T02:09:01.107Z,0.00
2017-10-11T02:10:01.156Z,0.00
2017-10-11T02:11:01.201Z,0.00
2017-10-11T02:12:01.244Z,0.00
2017-10-11T02:13:01.355Z,0.00
2017-10-11T02:14:01.336Z,0.00
2017-10-11T02:15:01.382Z,0.00
2017-10-11T02:16:01.431Z,0.00
2017-10-11T02:17:01.475Z,0.00
2017-10-11T02:18:01.589Z,0.00
2017-10-11T02:19:01.566Z,0.00
2017-10-11T02:20:01.613Z,0.00
2017-10-11T02:21:01.659Z,0.00
2017-10-11T02:22:01.706Z,0.00
2017-10-11T02:23:01.819Z,0.00
2017-10-11T02:24:01.804Z,0.00
2017-10-11T02:25:01.844Z,0.00
2017-10-11T02:26:01.890Z,0.00
2017-10-11T02:27:01.935Z,0.00
2017-10-11T02:28:02.048Z,0.00
2017-10-11T02:29:02.030Z,0.00
2017-10-11T02:30:02.075Z,0.00
2017-10-11T02:31:02.121Z,0.00
2017-10-11T02:32:02.165Z,0.00
2017-10-11T02:33:02.300Z,0.00
2017-10-11T02:34:02.263Z,0.00
2017-10-11T02:35:02.308Z,0.00
2017-10-11T02:36:02.353Z,0.00
2017-10-11T02:37:02.399Z,0.00
2017-10-11T02:38:02.512Z,0.00
2017-10-11T02:39:02.490Z,0.00
2017-10-11T02:40:02.536Z,0.00
2017-10-11T02:41:02.583Z,0.00
2017-10-11T02:42:02.627Z,0.00
2017-10-11T02:43:02.745Z,0.00
2017-10-11T02:44:02.720Z,0.00
2017-10-11T02:45:02.780Z,0.00
2017-10-11T02:46:02.814Z,0.00
2017-10-11T02:47:02.858Z,0.00
2017-10-11T02:48:02.968Z,0.00
2017-10-11T02:49:02.953Z,0.00
2017-10-11T02:50:02.995Z,0.00
2017-10-11T02:51:03.061Z,0.00
2017-10-11T02:52:03.088Z,0.00
2017-10-11T02:53:03.202Z,0.00
2017-10-11T02:54:03.249Z,0.00
2017-10-11T02:55:03.233Z,0.00
2017-10-11T02:56:03.273Z,0.00
2017-10-11T02:57:03.322Z,0.00
2017-10-11T02:58:03.430Z,0.00
2017-10-11T02:59:03.479Z,0.00
2017-10-11T03:00:03.464Z,0.00
2017-10-11T03:01:03.504Z,0.00
2017-10-11T03:02:03.550Z,0.00
2017-10-11T03:03:03.661Z,0.00
2017-10-11T03:04:03.644Z,0.00
2017-10-11T03:05:03.687Z,0.00
2017-10-11T03:06:03.740Z,0.00
2017-10-11T03:07:03.783Z,0.00
2017-10-11T03:08:03.889Z,0.00
2017-10-11T03:09:03.872Z,0.00
2017-10-11T03:10:03.922Z,0.00
2017-10-11T03:11:03.965Z,0.00
2017-10-11T03:12:04.013Z,0.00
2017-10-11T03:13:04.122Z,0.00
2017-10-11T03:14:04.169Z,0.00
2017-10-11T03:15:04.149Z,0.00
2017-10-11T03:16:04.196Z,0.00
2017-10-11T03:17:04.248Z,0.00
2017-10-11T03:18:04.353Z,0.00
2017-10-11T03:19:04.336Z,0.00
2017-10-11T03:20:04.379Z,0.00
2017-10-11T03:21:04.427Z,0.00
2017-10-11T03:22:04.471Z,0.00
2017-10-11T03:23:04.584Z,0.00
2017-10-11T03:24:04.566Z,0.00
2017-10-11T03:25:04.627Z,0.00
2017-10-11T03:26:04.655Z,0.00
2017-10-11T03:27:04.700Z,0.00
2017-10-11T03:28:04.825Z,0.00
2017-10-11T03:29:04.795Z,0.00
2017-10-11T03:30:04.845Z,0.00
2017-10-11T03:31:04.886Z,0.00
2017-10-11T03:32:04.933Z,0.00
2017-10-11T03:33:05.048Z,0.00
2017-10-11T03:34:05.088Z,0.00
2017-10-11T03:35:05.070Z,0.00
2017-10-11T03:36:05.117Z,0.00
2017-10-11T03:37:05.169Z,0.00
2017-10-11T03:38:05.207Z,0.00
2017-10-11T03:39:05.323Z,0.00
2017-10-11T03:40:05.301Z,0.00
2017-10-11T03:41:05.354Z,0.00
2017-10-11T03:42:05.392Z,0.00
2017-10-11T03:43:05.441Z,0.00
2017-10-11T03:44:05.632Z,0.00
2017-10-11T03:45:05.529Z,0.00
2017-10-11T03:46:05.576Z,0.00
2017-10-11T03:47:05.622Z,0.00
2017-10-11T03:48:05.666Z,0.00
2017-10-11T03:49:05.785Z,0.00
2017-10-11T03:50:05.757Z,0.00
2017-10-11T03:51:05.807Z,0.00
2017-10-11T03:52:05.856Z,0.00
2017-10-11T03:53:05.897Z,0.00
2017-10-11T03:54:06.010Z,0.00
2017-10-11T03:55:05.990Z,0.00
2017-10-11T03:56:06.035Z,0.00
2017-10-11T03:57:06.081Z,0.00
2017-10-11T03:58:06.125Z,0.00
2017-10-11T03:59:06.235Z,0.00
2017-10-11T04:00:06.219Z,0.00
2017-10-11T04:01:06.274Z,0.00
2017-10-11T04:02:06.310Z,0.00
2017-10-11T04:03:06.353Z,0.00
2017-10-11T04:04:06.470Z,0.00
2017-10-11T04:05:06.449Z,0.00
2017-10-11T04:06:06.493Z,0.00
2017-10-11T04:07:06.542Z,0.00
2017-10-11T04:08:06.589Z,0.00
2017-10-11T04:09:06.697Z,0.00
2017-10-11T04:10:06.678Z,0.00
2017-10-11T04:11:06.724Z,0.00
2017-10-11T04:12:06.771Z,0.00
2017-10-11T04:13:06.814Z,0.00
2017-10-11T04:14:06.925Z,0.00
2017-10-11T04:15:06.908Z,0.00
2017-10-11T04:16:06.953Z,0.00
2017-10-11T04:17:06.999Z,0.00
2017-10-11T04:18:07.761Z,0.00
2017-10-11T04:19:07.154Z,0.00
2017-10-11T04:20:07.136Z,0.00
2017-10-11T04:21:07.186Z,0.00
2017-10-11T04:22:07.230Z,0.00
2017-10-11T04:23:07.274Z,0.00
2017-10-11T04:24:07.390Z,0.00
2017-10-11T04:25:07.365Z,0.00
2017-10-11T04:26:07.429Z,0.00
2017-10-11T04:27:07.458Z,0.00
2017-10-11T04:28:07.505Z,0.00
2017-10-11T04:29:08.612Z,0.00
2017-10-11T04:30:07.599Z,0.00
2017-10-11T04:31:07.640Z,0.00
2017-10-11T04:32:07.687Z,0.00
2017-10-11T04:33:07.748Z,0.00
2017-10-11T04:34:07.843Z,0.00
2017-10-11T04:35:07.890Z,0.00
2017-10-11T04:36:07.873Z,0.00
2017-10-11T04:37:07.917Z,0.00
2017-10-11T04:38:07.961Z,0.00
2017-10-11T04:39:08.008Z,0.00
2017-10-11T04:40:08.118Z,0.00
2017-10-11T04:41:08.099Z,0.00
2017-10-11T04:42:08.142Z,0.00
2017-10-11T04:43:08.192Z,0.00
2017-10-11T04:44:08.236Z,0.00
2017-10-11T04:45:08.343Z,0.00
2017-10-11T04:46:08.327Z,0.00
2017-10-11T04:47:08.373Z,0.00
2017-10-11T04:48:08.420Z,0.00
2017-10-11T04:49:08.467Z,0.00
2017-10-11T04:50:08.593Z,0.00
2017-10-11T04:51:08.558Z,0.00
2017-10-11T04:52:08.602Z,0.00
2017-10-11T04:53:08.649Z,0.00
2017-10-11T04:54:08.694Z,0.00
2017-10-11T04:55:08.805Z,0.00
2017-10-11T04:56:08.849Z,0.00
2017-10-11T04:57:08.835Z,0.00
2017-10-11T04:58:08.876Z,0.00
2017-10-11T04:59:08.926Z,0.00
2017-10-11T05:00:08.973Z,0.00
2017-10-11T05:01:09.080Z,0.00
2017-10-11T05:02:09.061Z,0.00
2017-10-11T05:03:09.108Z,0.00
2017-10-11T05:04:09.153Z,0.00
2017-10-11T05:05:09.201Z,0.00
2017-10-11T05:06:09.311Z,0.00
2017-10-11T05:07:09.292Z,0.00
2017-10-11T05:08:10.112Z,0.00
2017-10-11T05:09:09.382Z,0.00
2017-10-11T05:10:09.435Z,0.00
2017-10-11T05:11:09.537Z,0.00
2017-10-11T05:12:09.520Z,0.00
2017-10-11T05:13:09.565Z,0.00
2017-10-11T05:14:09.610Z,0.00
2017-10-11T05:15:09.655Z,0.00
2017-10-11T05:16:09.770Z,0.00
2017-10-11T05:17:09.747Z,0.00
2017-10-11T05:18:09.792Z,0.00
2017-10-11T05:19:09.838Z,0.00
2017-10-11T05:20:09.882Z,0.00
2017-10-11T05:21:09.998Z,0.00
2017-10-11T05:22:09.976Z,0.00
2017-10-11T05:23:10.019Z,0.00
2017-10-11T05:24:10.067Z,0.00
2017-10-11T05:25:10.113Z,0.00
2017-10-11T05:26:10.222Z,0.00
2017-10-11T05:27:10.268Z,0.00
2017-10-11T05:28:10.249Z,5.63
2017-10-11T05:29:10.295Z,5.63
2017-10-11T05:30:10.339Z,5.63
2017-10-11T05:31:10.385Z,5.63
2017-10-11T05:32:10.499Z,5.63
2017-10-11T05:33:10.479Z,5.63
2017-10-11T05:34:10.525Z,5.63
2017-10-11T05:35:10.569Z,11.25
2017-10-11T05:36:10.613Z,11.25
2017-10-11T05:37:10.730Z,11.25
2017-10-11T05:38:10.705Z,11.25
2017-10-11T05:39:10.751Z,11.25
2017-10-11T05:40:10.798Z,16.88
2017-10-11T05:41:10.845Z,16.88
2017-10-11T05:42:10.971Z,16.88
2017-10-11T05:43:11.760Z,16.88
2017-10-11T05:44:10.981Z,22.50
2017-10-11T05:45:11.027Z,22.50
2017-10-11T05:46:13.350Z,22.50
2017-10-11T05:47:11.189Z,28.13
2017-10-11T05:48:11.163Z,28.13
2017-10-11T05:49:11.208Z,28.13
2017-10-11T05:50:11.252Z,33.75
2017-10-11T05:51:11.298Z,33.75
2017-10-11T05:52:14.496Z,33.75
2017-10-11T05:53:11.394Z,39.38
2017-10-11T05:54:14.072Z,39.38
2017-10-11T05:55:14.034Z,45.00
2017-10-11T05:56:14.169Z,45.00
2017-10-11T05:57:14.181Z,45.00
2017-10-11T05:58:15.508Z,50.63
2017-10-11T05:59:11.664Z,50.63
2017-10-11T06:00:11.711Z,56.25
2017-10-11T06:01:11.757Z,56.25
2017-10-11T06:02:11.802Z,61.88
2017-10-11T06:03:12.624Z,61.88
2017-10-11T06:04:11.892Z,67.50
2017-10-11T06:05:14.347Z,67.50
2017-10-11T06:06:13.718Z,67.50
2017-10-11T06:07:13.773Z,73.13
2017-10-11T06:08:14.686Z,73.13
2017-10-11T06:09:13.040Z,78.75
2017-10-11T06:10:14.425Z,78.75
2017-10-11T06:11:14.047Z,78.75
2017-10-11T06:12:14.489Z,84.38
2017-10-11T06:13:17.096Z,84.38
2017-10-11T06:14:14.352Z,84.38
2017-10-11T06:15:14.351Z,84.38
2017-10-11T06:16:14.949Z,90.00
2017-10-11T06:17:16.692Z,90.00
2017-10-11T06:18:17.172Z,90.00
2017-10-11T06:19:15.208Z,90.00
2017-10-11T06:20:15.226Z,95.63
2017-10-11T06:21:15.217Z,95.63
2017-10-11T06:22:15.149Z,95.63
2017-10-11T06:23:14.554Z,95.63
2017-10-11T06:24:15.352Z,101.25
2017-10-11T06:25:13.928Z,101.25
2017-10-11T06:26:15.542Z,101.25
2017-10-11T06:27:14.980Z,106.88
2017-10-11T06:28:14.157Z,106.88
2017-10-11T06:29:20.678Z,106.88
2017-10-11T06:30:17.274Z,112.50
2017-10-11T06:31:15.223Z,112.50
2017-10-11T06:32:15.932Z,118.13
2017-10-11T06:33:14.799Z,118.13
2017-10-11T06:34:14.552Z,118.13
2017-10-11T06:35:15.304Z,123.75
2017-10-11T06:36:16.517Z,123.75
2017-10-11T06:37:15.495Z,123.75
2017-10-11T06:38:15.062Z,123.75
2017-10-11T06:39:15.225Z,123.75
2017-10-11T06:40:14.251Z,123.75
2017-10-11T06:41:14.892Z,129.38
2017-10-11T06:42:17.601Z,129.38
2017-10-11T06:43:15.131Z,135.00
2017-10-11T06:44:18.665Z,135.00
2017-10-11T06:45:15.165Z,140.63
2017-10-11T06:46:14.873Z,140.63
2017-10-11T06:47:17.234Z,146.25
2017-10-11T06:48:15.929Z,151.88
2017-10-11T06:49:18.358Z,151.88
2017-10-11T06:50:15.682Z,151.88
2017-10-11T06:51:15.550Z,157.50
2017-10-11T06:52:16.192Z,157.50
2017-10-11T06:53:16.368Z,157.50
2017-10-11T06:54:16.111Z,157.50
2017-10-11T06:55:15.633Z,168.75
2017-10-11T06:56:16.265Z,163.13
2017-10-11T06:57:17.592Z,163.13
2017-10-11T06:58:16.539Z,163.13
2017-10-11T06:59:15.563Z,168.75
2017-10-11T07:00:16.115Z,168.75
2017-10-11T07:01:15.985Z,168.75
2017-10-11T07:02:18.604Z,168.75
2017-10-11T07:03:15.644Z,168.75
2017-10-11T07:04:15.531Z,174.38
2017-10-11T07:05:15.445Z,180.00
2017-10-11T07:06:15.582Z,185.63
2017-10-11T07:07:16.564Z,196.88
2017-10-11T07:08:15.913Z,196.88
2017-10-11T07:09:15.571Z,196.88
2017-10-11T07:10:15.784Z,202.50
2017-10-11T07:11:15.670Z,213.75
2017-10-11T07:12:16.171Z,241.88
2017-10-11T07:13:15.734Z,270.00
2017-10-11T07:14:15.455Z,286.88
2017-10-11T07:15:15.178Z,286.88
2017-10-11T07:16:15.227Z,303.75
2017-10-11T07:17:15.271Z,343.13
2017-10-11T07:18:15.382Z,343.13
2017-10-11T07:19:15.365Z,337.50
2017-10-11T07:20:15.408Z,331.88
2017-10-11T07:21:15.461Z,281.25
2017-10-11T07:22:15.505Z,326.25
2017-10-11T07:23:15.619Z,360.00
2017-10-11T07:24:15.606Z,388.13
2017-10-11T07:25:15.649Z,382.50
2017-10-11T07:26:15.699Z,388.13
2017-10-11T07:27:15.743Z,388.13
2017-10-11T07:28:15.855Z,388.13
2017-10-11T07:29:15.846Z,399.38
2017-10-11T07:30:15.886Z,405.00
2017-10-11T07:31:15.936Z,416.25
2017-10-11T07:32:15.982Z,410.63
2017-10-11T07:33:16.193Z,421.88
2017-10-11T07:34:16.147Z,427.50
2017-10-11T07:35:16.128Z,433.13
2017-10-11T07:36:16.177Z,433.13
2017-10-11T07:37:16.227Z,438.75
2017-10-11T07:38:16.275Z,450.00
2017-10-11T07:39:16.393Z,450.00
2017-10-11T07:40:16.374Z,461.25
2017-10-11T07:41:16.429Z,461.25
2017-10-11T07:42:16.470Z,461.25
2017-10-11T07:43:16.529Z,466.88
2017-10-11T07:44:16.635Z,472.50
2017-10-11T07:45:16.627Z,483.75
2017-10-11T07:46:16.673Z,489.38
2017-10-11T07:47:16.720Z,528.75
2017-10-11T07:48:16.773Z,551.25
2017-10-11T07:49:16.889Z,528.75
2017-10-11T07:50:16.873Z,545.63
2017-10-11T07:51:16.920Z,573.75
2017-10-11T07:52:16.969Z,635.63
2017-10-11T07:53:17.022Z,630.00
2017-10-11T07:54:17.134Z,652.50
2017-10-11T07:55:17.130Z,748.13
2017-10-11T07:56:17.171Z,855.00
2017-10-11T07:57:17.221Z,1046.25
2017-10-11T07:58:17.273Z,1080.00
2017-10-11T07:59:17.386Z,1057.50
2017-10-11T08:00:17.377Z,984.38
2017-10-11T08:01:17.424Z,1035.00
2017-10-11T08:02:17.478Z,995.63
2017-10-11T08:03:17.525Z,849.38
2017-10-11T08:04:17.641Z,832.50
2017-10-11T08:05:17.632Z,810.00
2017-10-11T08:06:17.678Z,894.38
2017-10-11T08:07:17.749Z,978.75
2017-10-11T08:08:17.780Z,1040.63
2017-10-11T08:09:17.895Z,1046.25
2017-10-11T08:10:17.884Z,1068.75
2017-10-11T08:11:17.933Z,1113.75
2017-10-11T08:12:17.998Z,1158.75
2017-10-11T08:13:18.037Z,1203.75
2017-10-11T08:14:18.173Z,1237.50
2017-10-11T08:15:18.144Z,1237.50
2017-10-11T08:16:18.191Z,1248.75
2017-10-11T08:17:18.258Z,1254.38
2017-10-11T08:18:18.292Z,1243.13
2017-10-11T08:19:18.426Z,1243.13
2017-10-11T08:20:18.396Z,1248.75
2017-10-11T08:21:18.450Z,1248.75
2017-10-11T08:22:18.497Z,1265.63
2017-10-11T08:23:18.549Z,1254.38
2017-10-11T08:24:18.672Z,1243.13
2017-10-11T08:25:18.654Z,1237.50
2017-10-11T08:26:18.705Z,1231.88
2017-10-11T08:27:18.757Z,1215.00
2017-10-11T08:28:18.809Z,1175.63
2017-10-11T08:29:18.936Z,1271.25
2017-10-11T08:30:18.913Z,1299.38
2017-10-11T08:31:18.965Z,1327.50
2017-10-11T08:32:19.017Z,1338.75
2017-10-11T08:33:19.077Z,1333.13
2017-10-11T08:34:19.190Z,1282.50
2017-10-11T08:35:19.172Z,1310.63
2017-10-11T08:36:19.225Z,1378.13
2017-10-11T08:37:19.279Z,1400.63
2017-10-11T08:38:19.326Z,1468.13
2017-10-11T08:39:19.463Z,1546.88
2017-10-11T08:40:19.430Z,1558.13
2017-10-11T08:41:19.486Z,1586.25
2017-10-11T08:42:19.537Z,1586.25
2017-10-11T08:43:19.586Z,1591.88
2017-10-11T08:44:19.705Z,1563.75
2017-10-11T08:45:19.758Z,1546.88
2017-10-11T08:46:19.745Z,1546.88
2017-10-11T08:47:19.797Z,1569.38
2017-10-11T08:48:19.851Z,1535.63
2017-10-11T08:49:19.904Z,1580.63
2017-10-11T08:50:20.016Z,1603.13
2017-10-11T08:51:20.008Z,1620.00
2017-10-11T08:52:20.057Z,1608.75
2017-10-11T08:53:20.116Z,1597.50
2017-10-11T08:54:20.161Z,1541.25
2017-10-11T08:55:20.279Z,1490.63
2017-10-11T08:56:20.268Z,1501.88
2017-10-11T08:57:20.320Z,1524.38
2017-10-11T08:58:20.371Z,1591.88
2017-10-11T08:59:20.431Z,1614.38
2017-10-11T09:00:20.541Z,1631.25
2017-10-11T09:01:20.531Z,1648.13
2017-10-11T09:02:20.582Z,1659.38
2017-10-11T09:03:20.636Z,1665.00
2017-10-11T09:04:20.689Z,1670.63
2017-10-11T09:05:20.807Z,1687.50
2017-10-11T09:06:20.798Z,1693.13
2017-10-11T09:07:20.847Z,1710.00
2017-10-11T09:08:20.905Z,1687.50
2017-10-11T09:09:20.959Z,1749.38
2017-10-11T09:10:21.126Z,1766.25
2017-10-11T09:11:21.063Z,1704.38
2017-10-11T09:12:21.118Z,1749.38
2017-10-11T09:13:21.169Z,1766.25
2017-10-11T09:14:21.222Z,1777.50
2017-10-11T09:15:21.341Z,1777.50
2017-10-11T09:16:21.330Z,1732.50
2017-10-11T09:17:21.384Z,1749.38
2017-10-11T09:18:21.435Z,1738.13
2017-10-11T09:19:21.492Z,1738.13
2017-10-11T09:20:21.608Z,1749.38
2017-10-11T09:21:21.599Z,1749.38
2017-10-11T09:22:21.652Z,1704.38
2017-10-11T09:23:21.703Z,1687.50
2017-10-11T09:24:21.758Z,1648.13
2017-10-11T09:25:21.897Z,1620.00
2017-10-11T09:26:21.862Z,1597.50
2017-10-11T09:27:21.919Z,1569.38
2017-10-11T09:28:21.971Z,1530.00
2017-10-11T09:29:22.023Z,1479.38
2017-10-11T09:30:22.144Z,1456.88
2017-10-11T09:31:22.196Z,1451.25
2017-10-11T09:32:22.185Z,1434.38
2017-10-11T09:33:22.243Z,1417.50
2017-10-11T09:34:22.291Z,1417.50
2017-10-11T09:35:22.348Z,1417.50
2017-10-11T09:36:22.464Z,1406.25
2017-10-11T09:37:22.457Z,1400.63
2017-10-11T09:38:22.509Z,1395.00
2017-10-11T09:39:22.564Z,1395.00
2017-10-11T09:40:22.621Z,1389.38
2017-10-11T09:41:22.742Z,1395.00
2017-10-11T09:42:22.728Z,1400.63
2017-10-11T09:43:22.790Z,1417.50
2017-10-11T09:44:22.839Z,1400.63
2017-10-11T09:45:22.895Z,1400.63
2017-10-11T09:46:23.010Z,1400.63
2017-10-11T09:47:23.015Z,1411.88
2017-10-11T09:48:23.058Z,1406.25
2017-10-11T09:49:23.110Z,1406.25
2017-10-11T09:50:23.165Z,1395.00
2017-10-11T09:51:23.287Z,1395.00
2017-10-11T09:52:23.274Z,1400.63
2017-10-11T09:53:23.329Z,1383.75
2017-10-11T09:54:23.384Z,1383.75
2017-10-11T09:55:23.438Z,1389.38
2017-10-11T09:56:23.561Z,1400.63
2017-10-11T09:57:23.550Z,1428.75
2017-10-11T09:58:23.602Z,1406.25
2017-10-11T09:59:23.657Z,1406.25
2017-10-11T10:00:23.711Z,1411.88
2017-10-11T10:01:23.849Z,1411.88
2017-10-11T10:02:23.821Z,1400.63
2017-10-11T10:03:23.875Z,1389.38
2017-10-11T10:04:23.930Z,1389.38
2017-10-11T10:05:23.987Z,1383.75
2017-10-11T10:06:24.111Z,1389.38
2017-10-11T10:07:24.165Z,1389.38
2017-10-11T10:08:24.149Z,1395.00
2017-10-11T10:09:24.205Z,1423.13
2017-10-11T10:10:24.258Z,1434.38
2017-10-11T10:11:24.315Z,1451.25
2017-10-11T10:12:24.433Z,1473.75
2017-10-11T10:13:24.421Z,1501.88
2017-10-11T10:14:24.482Z,1518.75
2017-10-11T10:15:24.531Z,1535.63
2017-10-11T10:16:24.586Z,1552.50
2017-10-11T10:17:24.720Z,1552.50
2017-10-11T10:18:24.696Z,1563.75
2017-10-11T10:19:24.750Z,1563.75
2017-10-11T10:20:24.804Z,1563.75
2017-10-11T10:21:24.860Z,1580.63
2017-10-11T10:22:24.977Z,1586.25
2017-10-11T10:23:24.968Z,1591.88
2017-10-11T10:24:25.023Z,1614.38
2017-10-11T10:25:25.078Z,1642.50
2017-10-11T10:26:25.130Z,1665.00
2017-10-11T10:27:25.248Z,1698.75
2017-10-11T10:28:25.239Z,1738.13
2017-10-11T10:29:25.294Z,1749.38
2017-10-11T10:30:25.350Z,1755.00
2017-10-11T10:31:25.403Z,1749.38
2017-10-11T10:32:25.524Z,1743.75
2017-10-11T10:33:25.511Z,1732.50
2017-10-11T10:34:25.562Z,1721.25
2017-10-11T10:35:25.621Z,1721.25
2017-10-11T10:36:25.671Z,1710.00
2017-10-11T10:37:25.866Z,1693.13
2017-10-11T10:38:25.780Z,1676.25
2017-10-11T10:39:25.832Z,1670.63
2017-10-11T10:40:25.886Z,1670.63
2017-10-11T10:41:25.942Z,1665.00
2017-10-11T10:42:26.062Z,1676.25
2017-10-11T10:43:26.115Z,1665.00
2017-10-11T10:44:26.106Z,1659.38
2017-10-11T10:45:26.162Z,1670.63
2017-10-11T10:46:26.215Z,1693.13
2017-10-11T10:47:26.269Z,1698.75
2017-10-11T10:48:26.387Z,1693.13
2017-10-11T10:49:26.379Z,1693.13
2017-10-11T10:50:26.434Z,1687.50
2017-10-11T10:51:26.488Z,1676.25
2017-10-11T10:52:26.543Z,1665.00
2017-10-11T10:53:26.667Z,1653.75
2017-10-11T10:54:26.654Z,1659.38
2017-10-11T10:55:26.709Z,1659.38
2017-10-11T10:56:26.763Z,1670.63
2017-10-11T10:57:26.816Z,1670.63
2017-10-11T10:58:26.936Z,1687.50
2017-10-11T10:59:26.930Z,1693.13
2017-10-11T11:00:26.982Z,1704.38
2017-10-11T11:01:27.376Z,1704.38
2017-10-11T11:02:27.140Z,1704.38
2017-10-11T11:03:27.209Z,1715.63
2017-10-11T11:04:27.201Z,1710.00
2017-10-11T11:05:27.258Z,1704.38
2017-10-11T11:06:27.313Z,1704.38
2017-10-11T11:07:27.365Z,1704.38
2017-10-11T11:08:27.484Z,1704.38
2017-10-11T11:09:27.474Z,1704.38
2017-10-11T11:10:27.528Z,1704.38
2017-10-11T11:11:27.589Z,1693.13
2017-10-11T11:12:27.637Z,1693.13
2017-10-11T11:13:27.775Z,1704.38
2017-10-11T11:14:27.747Z,1704.38
2017-10-11T11:15:27.804Z,1710.00
2017-10-11T11:16:27.859Z,1710.00
2017-10-11T11:17:27.912Z,1693.13
2017-10-11T11:18:28.030Z,1681.88
2017-10-11T11:19:28.087Z,1681.88
2017-10-11T11:20:28.075Z,1687.50
2017-10-11T11:21:28.135Z,1676.25
2017-10-11T11:22:28.182Z,1698.75
2017-10-11T11:23:28.237Z,1676.25
2017-10-11T11:24:28.361Z,1670.63
2017-10-11T11:25:28.348Z,1653.75
2017-10-11T11:26:28.400Z,1665.00
2017-10-11T11:27:28.454Z,1670.63
2017-10-11T11:28:28.513Z,1687.50
2017-10-11T11:29:28.628Z,1721.25
2017-10-11T11:30:28.616Z,1743.75
2017-10-11T11:31:28.679Z,1788.75
2017-10-11T11:32:28.728Z,1805.63
2017-10-11T11:33:28.783Z,1839.38
2017-10-11T11:34:28.898Z,1861.88
2017-10-11T11:35:28.889Z,1895.63
2017-10-11T11:36:28.945Z,1895.63
2017-10-11T11:37:28.998Z,1895.63
2017-10-11T11:38:29.051Z,1867.50
2017-10-11T11:39:29.177Z,1833.75
2017-10-11T11:40:29.160Z,1800.00
2017-10-11T11:41:29.217Z,1738.13
2017-10-11T11:42:29.270Z,1693.13
2017-10-11T11:43:29.328Z,1653.75
2017-10-11T11:44:29.442Z,1591.88
2017-10-11T11:45:29.438Z,1552.50
2017-10-11T11:46:29.498Z,1535.63
2017-10-11T11:47:29.545Z,1507.50
2017-10-11T11:48:29.597Z,1490.63
2017-10-11T11:49:29.744Z,1485.00
2017-10-11T11:50:29.704Z,1496.25
2017-10-11T11:51:29.761Z,1518.75
2017-10-11T11:52:29.818Z,1535.63
2017-10-11T11:53:29.870Z,1580.63
2017-10-11T11:54:30.001Z,1597.50
2017-10-11T11:55:29.983Z,1603.13
2017-10-11T11:56:30.034Z,1620.00
2017-10-11T11:57:30.092Z,1614.38
2017-10-11T11:58:30.148Z,1586.25
2017-10-11T11:59:30.267Z,1569.38
2017-10-11T12:00:30.324Z,1541.25
2017-10-11T12:01:30.329Z,1518.75
2017-10-11T12:02:30.367Z,1485.00
2017-10-11T12:03:30.427Z,1434.38
2017-10-11T12:04:30.479Z,1423.13
2017-10-11T12:05:30.603Z,1406.25
2017-10-11T12:06:30.589Z,1400.63
2017-10-11T12:07:30.646Z,1417.50
2017-10-11T12:08:30.701Z,1423.13
2017-10-11T12:09:30.761Z,1428.75
2017-10-11T12:10:30.993Z,1423.13
2017-10-11T12:11:30.870Z,1423.13
2017-10-11T12:12:30.927Z,1417.50
2017-10-11T12:13:30.978Z,1423.13
2017-10-11T12:14:31.034Z,1406.25
2017-10-11T12:15:31.152Z,1395.00
2017-10-11T12:16:31.146Z,1372.50
2017-10-11T12:17:31.203Z,1355.63
2017-10-11T12:18:31.252Z,1333.13
2017-10-11T12:19:31.310Z,1310.63
2017-10-11T12:20:31.450Z,1299.38
2017-10-11T12:21:31.424Z,1288.13
2017-10-11T12:22:31.476Z,1276.88
2017-10-11T12:23:31.533Z,1282.50
2017-10-11T12:24:31.588Z,1293.75
2017-10-11T12:25:31.728Z,1305.00
2017-10-11T12:26:31.700Z,1321.88
2017-10-11T12:27:31.757Z,1327.50
2017-10-11T12:28:31.812Z,1321.88
2017-10-11T12:29:31.866Z,1310.63
2017-10-11T12:30:32.006Z,1327.50
2017-10-11T12:31:31.981Z,1316.25
2017-10-11T12:32:32.038Z,1305.00
2017-10-11T12:33:32.092Z,1293.75
2017-10-11T12:34:32.147Z,1282.50
2017-10-11T12:35:32.265Z,1265.63
2017-10-11T12:36:32.323Z,1254.38
2017-10-11T12:37:32.316Z,1237.50
2017-10-11T12:38:32.372Z,1220.63
2017-10-11T12:39:32.426Z,1091.25
2017-10-11T12:40:32.566Z,573.75
2017-10-11T12:41:32.543Z,331.88
2017-10-11T12:42:32.595Z,315.00
2017-10-11T12:43:32.650Z,309.38